sensor_id;sensor_type;location;lat;lon;timestamp;pressure;altitude;pressure_sealevel;temperature
71081;BMP180;58740;50.672;18.690;2023-01-10T00:01:44;98079.00;;;6.50
71081;BMP180;58740;50.672;18.690;2023-01-10T00:04:12;98070.80;;;6.50
71081;BMP180;58740;50.672;18.690;2023-01-10T00:06:40;98074.40;;;6.50
71081;BMP180;58740;50.672;18.690;2023-01-10T00:09:09;98068.60;;;6.50
71081;BMP180;58740;50.672;18.690;2023-01-10T00:11:37;98064.00;;;6.50
71081;BMP180;58740;50.672;18.690;2023-01-10T00:14:26;98061.20;;;6.50
71081;BMP180;58740;50.672;18.690;2023-01-10T00:16:55;98065.60;;;6.40
71081;BMP180;58740;50.672;18.690;2023-01-10T00:19:24;98063.40;;;6.40
71081;BMP180;58740;50.672;18.690;2023-01-10T00:21:51;98068.80;;;6.40
71081;BMP180;58740;50.672;18.690;2023-01-10T00:24:20;98063.80;;;6.30
71081;BMP180;58740;50.672;18.690;2023-01-10T00:26:50;98069.60;;;6.30
71081;BMP180;58740;50.672;18.690;2023-01-10T00:29:28;98067.80;;;6.30
71081;BMP180;58740;50.672;18.690;2023-01-10T00:31:57;98067.00;;;6.20
71081;BMP180;58740;50.672;18.690;2023-01-10T00:34:25;98069.00;;;6.20
71081;BMP180;58740;50.672;18.690;2023-01-10T00:36:53;98071.40;;;6.10
71081;BMP180;58740;50.672;18.690;2023-01-10T00:39:21;98069.60;;;6.10
71081;BMP180;58740;50.672;18.690;2023-01-10T00:41:52;98072.40;;;6.00
71081;BMP180;58740;50.672;18.690;2023-01-10T00:44:46;98069.80;;;6.00
71081;BMP180;58740;50.672;18.690;2023-01-10T00:47:15;98074.20;;;6.00
71081;BMP180;58740;50.672;18.690;2023-01-10T00:49:45;98081.00;;;6.00
71081;BMP180;58740;50.672;18.690;2023-01-10T00:52:13;98084.00;;;6.00
71081;BMP180;58740;50.672;18.690;2023-01-10T00:54:41;98081.80;;;6.00
71081;BMP180;58740;50.672;18.690;2023-01-10T00:57:08;98085.00;;;6.00
71081;BMP180;58740;50.672;18.690;2023-01-10T00:59:36;98092.00;;;6.00
71081;BMP180;58740;50.672;18.690;2023-01-10T01:02:04;98096.20;;;6.00
71081;BMP180;58740;50.672;18.690;2023-01-10T01:04:32;98102.20;;;6.00
71081;BMP180;58740;50.672;18.690;2023-01-10T01:07:01;98104.40;;;6.00
71081;BMP180;58740;50.672;18.690;2023-01-10T01:09:29;98105.20;;;6.00
71081;BMP180;58740;50.672;18.690;2023-01-10T01:11:57;98116.60;;;6.00
71081;BMP180;58740;50.672;18.690;2023-01-10T01:14:25;98118.60;;;6.00
71081;BMP180;58740;50.672;18.690;2023-01-10T01:16:52;98123.60;;;6.08
71081;BMP180;58740;50.672;18.690;2023-01-10T01:19:20;98120.40;;;6.10
71081;BMP180;58740;50.672;18.690;2023-01-10T01:21:48;98123.60;;;6.10
71081;BMP180;58740;50.672;18.690;2023-01-10T01:24:16;98123.20;;;6.08
71081;BMP180;58740;50.672;18.690;2023-01-10T01:26:43;98124.20;;;6.06
71081;BMP180;58740;50.672;18.690;2023-01-10T01:29:12;98127.60;;;6.00
71081;BMP180;58740;50.672;18.690;2023-01-10T01:31:39;98127.80;;;6.00
71081;BMP180;58740;50.672;18.690;2023-01-10T01:34:07;98128.00;;;6.00
71081;BMP180;58740;50.672;18.690;2023-01-10T01:36:35;98133.40;;;6.00
71081;BMP180;58740;50.672;18.690;2023-01-10T01:39:03;98132.60;;;6.00
71081;BMP180;58740;50.672;18.690;2023-01-10T01:41:32;98140.00;;;6.00
71081;BMP180;58740;50.672;18.690;2023-01-10T01:44:19;98139.00;;;6.00
71081;BMP180;58740;50.672;18.690;2023-01-10T01:47:22;98134.80;;;6.00
71081;BMP180;58740;50.672;18.690;2023-01-10T01:49:52;98141.60;;;6.00
71081;BMP180;58740;50.672;18.690;2023-01-10T01:52:28;98136.40;;;6.00
71081;BMP180;58740;50.672;18.690;2023-01-10T01:54:58;98143.00;;;6.00
71081;BMP180;58740;50.672;18.690;2023-01-10T01:57:28;98146.80;;;6.00
71081;BMP180;58740;50.672;18.690;2023-01-10T02:00:01;98144.20;;;6.10
71081;BMP180;58740;50.672;18.690;2023-01-10T02:02:38;98147.60;;;6.10
71081;BMP180;58740;50.672;18.690;2023-01-10T02:05:14;98150.80;;;6.10
71081;BMP180;58740;50.672;18.690;2023-01-10T02:07:45;98153.00;;;6.10
71081;BMP180;58740;50.672;18.690;2023-01-10T02:10:22;98153.40;;;6.10
71081;BMP180;58740;50.672;18.690;2023-01-10T02:12:55;98154.40;;;6.10
71081;BMP180;58740;50.672;18.690;2023-01-10T02:15:24;98158.60;;;6.10
71081;BMP180;58740;50.672;18.690;2023-01-10T02:17:52;98156.60;;;6.10
71081;BMP180;58740;50.672;18.690;2023-01-10T02:20:22;98165.80;;;6.10
71081;BMP180;58740;50.672;18.690;2023-01-10T02:23:02;98163.80;;;6.10
71081;BMP180;58740;50.672;18.690;2023-01-10T02:26:04;98165.20;;;6.00
71081;BMP180;58740;50.672;18.690;2023-01-10T02:35:27;98175.20;;;6.00
71081;BMP180;58740;50.672;18.690;2023-01-10T02:38:11;98172.60;;;5.96
71081;BMP180;58740;50.672;18.690;2023-01-10T02:43:58;98182.80;;;5.92
71081;BMP180;58740;50.672;18.690;2023-01-10T02:46:30;98180.80;;;5.90
71081;BMP180;58740;50.672;18.690;2023-01-10T02:48:58;98185.60;;;5.90
71081;BMP180;58740;50.672;18.690;2023-01-10T02:51:29;98181.00;;;5.90
71081;BMP180;58740;50.672;18.690;2023-01-10T02:54:10;98179.00;;;5.90
71081;BMP180;58740;50.672;18.690;2023-01-10T02:56:58;98184.40;;;5.90
71081;BMP180;58740;50.672;18.690;2023-01-10T03:00:06;98190.40;;;5.90
71081;BMP180;58740;50.672;18.690;2023-01-10T03:03:22;98191.60;;;6.00
71081;BMP180;58740;50.672;18.690;2023-01-10T03:09:01;98195.40;;;6.00
71081;BMP180;58740;50.672;18.690;2023-01-10T03:11:34;98203.00;;;6.00
71081;BMP180;58740;50.672;18.690;2023-01-10T03:14:36;98208.00;;;6.00
71081;BMP180;58740;50.672;18.690;2023-01-10T03:17:09;98212.40;;;6.00
71081;BMP180;58740;50.672;18.690;2023-01-10T03:19:45;98214.00;;;6.00
71081;BMP180;58740;50.672;18.690;2023-01-10T03:22:16;98221.00;;;6.02
71081;BMP180;58740;50.672;18.690;2023-01-10T03:24:48;98230.80;;;6.10
71081;BMP180;58740;50.672;18.690;2023-01-10T03:27:42;98233.40;;;6.10
71081;BMP180;58740;50.672;18.690;2023-01-10T03:32:47;98236.60;;;6.06
71081;BMP180;58740;50.672;18.690;2023-01-10T03:35:16;98246.40;;;6.02
71081;BMP180;58740;50.672;18.690;2023-01-10T03:38:00;98245.20;;;6.00
71081;BMP180;58740;50.672;18.690;2023-01-10T03:40:58;98249.20;;;6.10
71081;BMP180;58740;50.672;18.690;2023-01-10T03:43:44;98258.40;;;6.10
71081;BMP180;58740;50.672;18.690;2023-01-10T03:47:12;98263.60;;;6.10
71081;BMP180;58740;50.672;18.690;2023-01-10T03:49:44;98277.00;;;6.10
71081;BMP180;58740;50.672;18.690;2023-01-10T03:52:17;98282.20;;;6.10
71081;BMP180;58740;50.672;18.690;2023-01-10T03:54:47;98291.00;;;6.10
71081;BMP180;58740;50.672;18.690;2023-01-10T03:57:21;98302.00;;;6.10
71081;BMP180;58740;50.672;18.690;2023-01-10T03:59:54;98306.40;;;6.10
71081;BMP180;58740;50.672;18.690;2023-01-10T04:02:28;98309.80;;;6.20
71081;BMP180;58740;50.672;18.690;2023-01-10T04:04:57;98313.60;;;6.20
71081;BMP180;58740;50.672;18.690;2023-01-10T04:07:26;98321.20;;;6.20
71081;BMP180;58740;50.672;18.690;2023-01-10T04:09:54;98320.20;;;6.28
71081;BMP180;58740;50.672;18.690;2023-01-10T04:12:22;98323.00;;;6.22
71081;BMP180;58740;50.672;18.690;2023-01-10T04:14:50;98324.00;;;6.20
71081;BMP180;58740;50.672;18.690;2023-01-10T04:17:18;98329.80;;;6.20
71081;BMP180;58740;50.672;18.690;2023-01-10T04:19:46;98337.40;;;6.20
71081;BMP180;58740;50.672;18.690;2023-01-10T04:22:14;98341.20;;;6.20
71081;BMP180;58740;50.672;18.690;2023-01-10T04:24:41;98342.40;;;6.20
71081;BMP180;58740;50.672;18.690;2023-01-10T04:27:10;98344.40;;;6.20
71081;BMP180;58740;50.672;18.690;2023-01-10T04:29:38;98349.20;;;6.26
71081;BMP180;58740;50.672;18.690;2023-01-10T04:32:06;98355.40;;;6.20
71081;BMP180;58740;50.672;18.690;2023-01-10T04:34:34;98359.40;;;6.20
71081;BMP180;58740;50.672;18.690;2023-01-10T04:37:02;98363.00;;;6.20
71081;BMP180;58740;50.672;18.690;2023-01-10T04:39:29;98360.60;;;6.20
71081;BMP180;58740;50.672;18.690;2023-01-10T04:41:57;98363.00;;;6.20
71081;BMP180;58740;50.672;18.690;2023-01-10T04:44:25;98374.20;;;6.20
71081;BMP180;58740;50.672;18.690;2023-01-10T04:46:53;98376.40;;;6.18
71081;BMP180;58740;50.672;18.690;2023-01-10T04:49:20;98375.80;;;6.20
71081;BMP180;58740;50.672;18.690;2023-01-10T04:51:48;98380.40;;;6.20
71081;BMP180;58740;50.672;18.690;2023-01-10T04:54:21;98385.00;;;6.24
71081;BMP180;58740;50.672;18.690;2023-01-10T04:56:50;98386.60;;;6.30
71081;BMP180;58740;50.672;18.690;2023-01-10T04:59:18;98390.00;;;6.28
71081;BMP180;58740;50.672;18.690;2023-01-10T05:01:46;98395.00;;;6.20
71081;BMP180;58740;50.672;18.690;2023-01-10T05:04:14;98399.60;;;6.20
71081;BMP180;58740;50.672;18.690;2023-01-10T05:06:42;98406.80;;;6.20
71081;BMP180;58740;50.672;18.690;2023-01-10T05:09:10;98397.40;;;6.20
71081;BMP180;58740;50.672;18.690;2023-01-10T05:11:37;98409.00;;;6.20
71081;BMP180;58740;50.672;18.690;2023-01-10T05:14:05;98404.20;;;6.24
71081;BMP180;58740;50.672;18.690;2023-01-10T05:16:33;98405.80;;;6.30
71081;BMP180;58740;50.672;18.690;2023-01-10T05:19:01;98408.20;;;6.24
71081;BMP180;58740;50.672;18.690;2023-01-10T05:21:29;98415.00;;;6.20
71081;BMP180;58740;50.672;18.690;2023-01-10T05:23:57;98419.00;;;6.24
71081;BMP180;58740;50.672;18.690;2023-01-10T05:26:25;98415.00;;;6.26
71081;BMP180;58740;50.672;18.690;2023-01-10T05:28:53;98417.20;;;6.30
71081;BMP180;58740;50.672;18.690;2023-01-10T05:31:20;98422.00;;;6.30
71081;BMP180;58740;50.672;18.690;2023-01-10T05:33:50;98431.60;;;6.30
71081;BMP180;58740;50.672;18.690;2023-01-10T05:36:18;98432.40;;;6.30
71081;BMP180;58740;50.672;18.690;2023-01-10T05:38:46;98437.80;;;6.30
71081;BMP180;58740;50.672;18.690;2023-01-10T05:41:14;98443.40;;;6.26
71081;BMP180;58740;50.672;18.690;2023-01-10T05:43:42;98448.00;;;6.24
71081;BMP180;58740;50.672;18.690;2023-01-10T05:46:10;98442.00;;;6.30
71081;BMP180;58740;50.672;18.690;2023-01-10T05:48:38;98452.40;;;6.30
71081;BMP180;58740;50.672;18.690;2023-01-10T05:51:06;98456.00;;;6.30
71081;BMP180;58740;50.672;18.690;2023-01-10T05:53:34;98461.20;;;6.30
71081;BMP180;58740;50.672;18.690;2023-01-10T05:56:02;98469.20;;;6.30
71081;BMP180;58740;50.672;18.690;2023-01-10T05:58:31;98474.40;;;6.30
71081;BMP180;58740;50.672;18.690;2023-01-10T06:00:58;98478.40;;;6.30
71081;BMP180;58740;50.672;18.690;2023-01-10T06:03:26;98483.80;;;6.30
71081;BMP180;58740;50.672;18.690;2023-01-10T06:05:55;98487.40;;;6.30
71081;BMP180;58740;50.672;18.690;2023-01-10T06:08:24;98491.60;;;6.30
71081;BMP180;58740;50.672;18.690;2023-01-10T06:10:52;98498.20;;;6.24
71081;BMP180;58740;50.672;18.690;2023-01-10T06:13:20;98492.40;;;6.30
71081;BMP180;58740;50.672;18.690;2023-01-10T06:15:48;98499.60;;;6.30
71081;BMP180;58740;50.672;18.690;2023-01-10T06:18:16;98502.00;;;6.30
71081;BMP180;58740;50.672;18.690;2023-01-10T06:20:44;98507.40;;;6.30
71081;BMP180;58740;50.672;18.690;2023-01-10T06:23:12;98508.80;;;6.30
71081;BMP180;58740;50.672;18.690;2023-01-10T06:25:40;98521.40;;;6.30
71081;BMP180;58740;50.672;18.690;2023-01-10T06:28:11;98521.80;;;6.30
71081;BMP180;58740;50.672;18.690;2023-01-10T06:30:40;98522.80;;;6.30
71081;BMP180;58740;50.672;18.690;2023-01-10T06:33:11;98521.20;;;6.24
71081;BMP180;58740;50.672;18.690;2023-01-10T06:35:39;98524.80;;;6.22
71081;BMP180;58740;50.672;18.690;2023-01-10T06:38:06;98534.20;;;6.30
71081;BMP180;58740;50.672;18.690;2023-01-10T06:40:34;98536.40;;;6.30
71081;BMP180;58740;50.672;18.690;2023-01-10T06:43:02;98542.80;;;6.30
71081;BMP180;58740;50.672;18.690;2023-01-10T06:45:30;98551.20;;;6.30
71081;BMP180;58740;50.672;18.690;2023-01-10T06:47:58;98559.80;;;6.30
71081;BMP180;58740;50.672;18.690;2023-01-10T06:50:26;98562.20;;;6.30
71081;BMP180;58740;50.672;18.690;2023-01-10T06:53:00;98571.00;;;6.30
71081;BMP180;58740;50.672;18.690;2023-01-10T06:55:29;98570.40;;;6.30
71081;BMP180;58740;50.672;18.690;2023-01-10T06:58:01;98573.60;;;6.30
71081;BMP180;58740;50.672;18.690;2023-01-10T07:00:30;98579.40;;;6.30
71081;BMP180;58740;50.672;18.690;2023-01-10T07:03:00;98578.40;;;6.30
71081;BMP180;58740;50.672;18.690;2023-01-10T07:05:28;98589.00;;;6.32
71081;BMP180;58740;50.672;18.690;2023-01-10T07:07:57;98596.00;;;6.30
71081;BMP180;58740;50.672;18.690;2023-01-10T07:10:27;98597.40;;;6.30
71081;BMP180;58740;50.672;18.690;2023-01-10T07:12:56;98597.60;;;6.30
71081;BMP180;58740;50.672;18.690;2023-01-10T07:15:27;98600.00;;;6.30
71081;BMP180;58740;50.672;18.690;2023-01-10T07:17:56;98599.60;;;6.24
71081;BMP180;58740;50.672;18.690;2023-01-10T07:20:25;98609.60;;;6.24
71081;BMP180;58740;50.672;18.690;2023-01-10T07:22:59;98612.40;;;6.24
71081;BMP180;58740;50.672;18.690;2023-01-10T07:25:28;98614.80;;;6.20
71081;BMP180;58740;50.672;18.690;2023-01-10T07:27:57;98623.80;;;6.20
71081;BMP180;58740;50.672;18.690;2023-01-10T07:30:24;98628.60;;;6.20
71081;BMP180;58740;50.672;18.690;2023-01-10T07:32:56;98632.40;;;6.20
71081;BMP180;58740;50.672;18.690;2023-01-10T07:35:24;98632.80;;;6.20
71081;BMP180;58740;50.672;18.690;2023-01-10T07:37:52;98635.20;;;6.20
71081;BMP180;58740;50.672;18.690;2023-01-10T07:40:20;98635.60;;;6.16
71081;BMP180;58740;50.672;18.690;2023-01-10T07:42:48;98636.40;;;6.12
71081;BMP180;58740;50.672;18.690;2023-01-10T07:45:16;98635.40;;;6.10
71081;BMP180;58740;50.672;18.690;2023-01-10T07:47:44;98638.80;;;6.18
71081;BMP180;58740;50.672;18.690;2023-01-10T07:50:14;98640.80;;;6.14
71081;BMP180;58740;50.672;18.690;2023-01-10T07:52:44;98637.60;;;6.20
71081;BMP180;58740;50.672;18.690;2023-01-10T07:55:12;98639.60;;;6.10
71081;BMP180;58740;50.672;18.690;2023-01-10T07:57:40;98635.80;;;6.10
71081;BMP180;58740;50.672;18.690;2023-01-10T08:00:08;98639.60;;;6.10
71081;BMP180;58740;50.672;18.690;2023-01-10T08:02:36;98636.60;;;6.04
71081;BMP180;58740;50.672;18.690;2023-01-10T08:05:05;98644.20;;;6.10
71081;BMP180;58740;50.672;18.690;2023-01-10T08:07:32;98643.40;;;6.02
71081;BMP180;58740;50.672;18.690;2023-01-10T08:10:01;98654.60;;;6.06
71081;BMP180;58740;50.672;18.690;2023-01-10T08:12:28;98655.60;;;6.10
71081;BMP180;58740;50.672;18.690;2023-01-10T08:14:57;98663.80;;;6.04
71081;BMP180;58740;50.672;18.690;2023-01-10T08:17:25;98666.40;;;6.00
71081;BMP180;58740;50.672;18.690;2023-01-10T08:19:53;98668.20;;;6.00
71081;BMP180;58740;50.672;18.690;2023-01-10T08:22:21;98662.80;;;5.90
71081;BMP180;58740;50.672;18.690;2023-01-10T08:24:48;98665.40;;;5.90
71081;BMP180;58740;50.672;18.690;2023-01-10T08:27:16;98669.80;;;5.90
71081;BMP180;58740;50.672;18.690;2023-01-10T08:29:44;98673.20;;;5.90
71081;BMP180;58740;50.672;18.690;2023-01-10T08:32:12;98679.40;;;5.90
71081;BMP180;58740;50.672;18.690;2023-01-10T08:34:40;98684.80;;;5.90
71081;BMP180;58740;50.672;18.690;2023-01-10T08:37:13;98688.60;;;5.90
71081;BMP180;58740;50.672;18.690;2023-01-10T08:39:41;98694.00;;;5.90
71081;BMP180;58740;50.672;18.690;2023-01-10T08:42:09;98698.80;;;5.90
71081;BMP180;58740;50.672;18.690;2023-01-10T08:44:36;98693.20;;;5.90
71081;BMP180;58740;50.672;18.690;2023-01-10T08:47:04;98695.80;;;5.90
71081;BMP180;58740;50.672;18.690;2023-01-10T08:49:32;98702.20;;;5.90
71081;BMP180;58740;50.672;18.690;2023-01-10T08:52:01;98710.00;;;5.90
71081;BMP180;58740;50.672;18.690;2023-01-10T08:54:29;98712.00;;;5.90
71081;BMP180;58740;50.672;18.690;2023-01-10T08:56:57;98716.20;;;5.90
71081;BMP180;58740;50.672;18.690;2023-01-10T08:59:24;98714.00;;;5.90
71081;BMP180;58740;50.672;18.690;2023-01-10T09:01:52;98709.80;;;6.00
71081;BMP180;58740;50.672;18.690;2023-01-10T09:04:20;98712.20;;;6.00
71081;BMP180;58740;50.672;18.690;2023-01-10T09:06:48;98722.60;;;5.98
71081;BMP180;58740;50.672;18.690;2023-01-10T09:09:16;98727.00;;;5.90
71081;BMP180;58740;50.672;18.690;2023-01-10T09:11:43;98726.40;;;5.90
71081;BMP180;58740;50.672;18.690;2023-01-10T09:14:11;98732.40;;;5.90
71081;BMP180;58740;50.672;18.690;2023-01-10T09:16:40;98738.00;;;5.86
71081;BMP180;58740;50.672;18.690;2023-01-10T09:19:09;98747.40;;;5.84
71081;BMP180;58740;50.672;18.690;2023-01-10T09:21:37;98744.40;;;5.90
71081;BMP180;58740;50.672;18.690;2023-01-10T09:24:05;98755.60;;;5.90
71081;BMP180;58740;50.672;18.690;2023-01-10T09:26:33;98760.80;;;5.90
71081;BMP180;58740;50.672;18.690;2023-01-10T09:29:01;98762.20;;;5.90
71081;BMP180;58740;50.672;18.690;2023-01-10T09:31:29;98767.20;;;5.98
71081;BMP180;58740;50.672;18.690;2023-01-10T09:33:57;98768.40;;;5.98
71081;BMP180;58740;50.672;18.690;2023-01-10T09:36:25;98766.40;;;5.90
71081;BMP180;58740;50.672;18.690;2023-01-10T09:38:53;98771.20;;;5.90
71081;BMP180;58740;50.672;18.690;2023-01-10T09:42:18;98774.20;;;5.90
71081;BMP180;58740;50.672;18.690;2023-01-10T09:45:14;98777.60;;;5.96
71081;BMP180;58740;50.672;18.690;2023-01-10T09:47:52;98772.20;;;6.00
71081;BMP180;58740;50.672;18.690;2023-01-10T09:50:53;98773.80;;;6.00
71081;BMP180;58740;50.672;18.690;2023-01-10T09:53:21;98772.20;;;6.10
71081;BMP180;58740;50.672;18.690;2023-01-10T09:55:54;98773.80;;;6.10
71081;BMP180;58740;50.672;18.690;2023-01-10T09:58:28;98775.40;;;6.10
71081;BMP180;58740;50.672;18.690;2023-01-10T10:01:32;98770.60;;;6.10
71081;BMP180;58740;50.672;18.690;2023-01-10T10:06:38;98771.00;;;6.00
71081;BMP180;58740;50.672;18.690;2023-01-10T10:09:12;98782.60;;;6.00
71081;BMP180;58740;50.672;18.690;2023-01-10T10:15:23;98787.60;;;6.10
71081;BMP180;58740;50.672;18.690;2023-01-10T10:18:21;98797.00;;;6.10
71081;BMP180;58740;50.672;18.690;2023-01-10T10:21:00;98795.80;;;6.10
71081;BMP180;58740;50.672;18.690;2023-01-10T10:26:35;98799.60;;;6.10
71081;BMP180;58740;50.672;18.690;2023-01-10T10:32:23;98803.80;;;6.10
71081;BMP180;58740;50.672;18.690;2023-01-10T10:37:41;98811.00;;;6.10
71081;BMP180;58740;50.672;18.690;2023-01-10T10:40:23;98813.20;;;6.10
71081;BMP180;58740;50.672;18.690;2023-01-10T10:42:58;98815.20;;;6.10
71081;BMP180;58740;50.672;18.690;2023-01-10T10:48:29;98819.40;;;6.08
71081;BMP180;58740;50.672;18.690;2023-01-10T10:51:11;98823.20;;;6.10
71081;BMP180;58740;50.672;18.690;2023-01-10T10:53:40;98830.60;;;6.10
71081;BMP180;58740;50.672;18.690;2023-01-10T10:56:15;98825.60;;;6.10
71081;BMP180;58740;50.672;18.690;2023-01-10T10:58:49;98829.40;;;6.10
71081;BMP180;58740;50.672;18.690;2023-01-10T11:01:18;98827.80;;;6.10
71081;BMP180;58740;50.672;18.690;2023-01-10T11:03:56;98834.00;;;6.04
71081;BMP180;58740;50.672;18.690;2023-01-10T11:06:29;98836.40;;;6.00
71081;BMP180;58740;50.672;18.690;2023-01-10T11:09:03;98834.20;;;6.00
71081;BMP180;58740;50.672;18.690;2023-01-10T11:11:37;98833.60;;;6.00
71081;BMP180;58740;50.672;18.690;2023-01-10T11:14:07;98835.60;;;6.00
71081;BMP180;58740;50.672;18.690;2023-01-10T11:16:41;98837.00;;;6.00
71081;BMP180;58740;50.672;18.690;2023-01-10T11:19:24;98839.60;;;6.00
71081;BMP180;58740;50.672;18.690;2023-01-10T11:22:02;98848.60;;;5.90
71081;BMP180;58740;50.672;18.690;2023-01-10T11:24:42;98851.60;;;5.90
71081;BMP180;58740;50.672;18.690;2023-01-10T11:27:17;98856.00;;;5.90
71081;BMP180;58740;50.672;18.690;2023-01-10T11:29:50;98855.20;;;5.90
71081;BMP180;58740;50.672;18.690;2023-01-10T11:33:07;98862.80;;;5.90
71081;BMP180;58740;50.672;18.690;2023-01-10T11:35:36;98856.40;;;5.90
71081;BMP180;58740;50.672;18.690;2023-01-10T11:38:19;98859.80;;;5.96
71081;BMP180;58740;50.672;18.690;2023-01-10T11:41:00;98877.00;;;5.98
71081;BMP180;58740;50.672;18.690;2023-01-10T11:43:38;98871.80;;;5.92
71081;BMP180;58740;50.672;18.690;2023-01-10T11:46:21;98873.00;;;5.90
71081;BMP180;58740;50.672;18.690;2023-01-10T11:49:05;98871.80;;;5.90
71081;BMP180;58740;50.672;18.690;2023-01-10T11:51:45;98873.60;;;5.90
71081;BMP180;58740;50.672;18.690;2023-01-10T11:54:23;98879.60;;;6.00
71081;BMP180;58740;50.672;18.690;2023-01-10T11:57:07;98879.60;;;6.00
71081;BMP180;58740;50.672;18.690;2023-01-10T11:59:35;98885.60;;;6.00
71081;BMP180;58740;50.672;18.690;2023-01-10T12:02:43;98885.40;;;5.90
71081;BMP180;58740;50.672;18.690;2023-01-10T12:05:18;98898.60;;;5.90
71081;BMP180;58740;50.672;18.690;2023-01-10T12:08:03;98894.40;;;5.90
71081;BMP180;58740;50.672;18.690;2023-01-10T12:10:34;98897.40;;;5.90
71081;BMP180;58740;50.672;18.690;2023-01-10T12:13:29;98896.40;;;5.90
71081;BMP180;58740;50.672;18.690;2023-01-10T12:18:58;98903.60;;;6.00
71081;BMP180;58740;50.672;18.690;2023-01-10T12:21:39;98906.20;;;6.00
71081;BMP180;58740;50.672;18.690;2023-01-10T12:24:34;98907.60;;;6.00
71081;BMP180;58740;50.672;18.690;2023-01-10T12:27:03;98919.60;;;6.00
71081;BMP180;58740;50.672;18.690;2023-01-10T12:29:48;98922.20;;;6.00
71081;BMP180;58740;50.672;18.690;2023-01-10T12:32:25;98926.40;;;6.00
71081;BMP180;58740;50.672;18.690;2023-01-10T12:35:02;98934.60;;;6.00
71081;BMP180;58740;50.672;18.690;2023-01-10T12:37:43;98941.60;;;6.10
71081;BMP180;58740;50.672;18.690;2023-01-10T12:40:43;98938.00;;;6.10
71081;BMP180;58740;50.672;18.690;2023-01-10T12:43:34;98936.20;;;6.10
71081;BMP180;58740;50.672;18.690;2023-01-10T12:46:32;98941.40;;;6.10
71081;BMP180;58740;50.672;18.690;2023-01-10T12:52:30;98947.80;;;6.10
71081;BMP180;58740;50.672;18.690;2023-01-10T12:55:00;98960.00;;;6.10
71081;BMP180;58740;50.672;18.690;2023-01-10T12:57:37;98962.40;;;6.10
71081;BMP180;58740;50.672;18.690;2023-01-10T13:00:31;98964.80;;;6.10
71081;BMP180;58740;50.672;18.690;2023-01-10T13:03:29;98964.80;;;6.10
71081;BMP180;58740;50.672;18.690;2023-01-10T13:06:03;98977.40;;;6.10
71081;BMP180;58740;50.672;18.690;2023-01-10T13:08:33;98976.80;;;6.10
71081;BMP180;58740;50.672;18.690;2023-01-10T13:11:02;98979.60;;;6.14
71081;BMP180;58740;50.672;18.690;2023-01-10T13:13:41;98981.20;;;6.20
71081;BMP180;58740;50.672;18.690;2023-01-10T13:21:39;98993.00;;;6.16
71081;BMP180;58740;50.672;18.690;2023-01-10T13:24:23;99003.80;;;6.20
71081;BMP180;58740;50.672;18.690;2023-01-10T13:27:17;99003.40;;;6.20
71081;BMP180;58740;50.672;18.690;2023-01-10T13:29:47;99002.20;;;6.20
71081;BMP180;58740;50.672;18.690;2023-01-10T13:32:23;99009.00;;;6.20
71081;BMP180;58740;50.672;18.690;2023-01-10T13:34:52;99013.00;;;6.20
71081;BMP180;58740;50.672;18.690;2023-01-10T13:37:26;99008.80;;;6.20
71081;BMP180;58740;50.672;18.690;2023-01-10T13:39:59;99012.00;;;6.20
71081;BMP180;58740;50.672;18.690;2023-01-10T13:45:29;99022.40;;;6.20
71081;BMP180;58740;50.672;18.690;2023-01-10T13:48:00;99019.80;;;6.20
71081;BMP180;58740;50.672;18.690;2023-01-10T14:00:49;99036.60;;;6.20
71081;BMP180;58740;50.672;18.690;2023-01-10T14:03:55;99042.00;;;6.20
71081;BMP180;58740;50.672;18.690;2023-01-10T14:06:33;99049.00;;;6.20
71081;BMP180;58740;50.672;18.690;2023-01-10T14:14:38;99052.20;;;6.14
71081;BMP180;58740;50.672;18.690;2023-01-10T14:17:14;99063.20;;;6.12
71081;BMP180;58740;50.672;18.690;2023-01-10T14:20:35;99060.20;;;6.10
71081;BMP180;58740;50.672;18.690;2023-01-10T14:22:39;99060.40;;;6.10
71081;BMP180;58740;50.672;18.690;2023-01-10T14:25:18;99063.20;;;6.00
71081;BMP180;58740;50.672;18.690;2023-01-10T14:27:50;99068.80;;;6.00
71081;BMP180;58740;50.672;18.690;2023-01-10T14:30:38;99064.60;;;6.02
71081;BMP180;58740;50.672;18.690;2023-01-10T14:33:19;99058.20;;;6.06
71081;BMP180;58740;50.672;18.690;2023-01-10T14:35:57;99053.00;;;6.10
71081;BMP180;58740;50.672;18.690;2023-01-10T14:38:30;99064.20;;;6.10
71081;BMP180;58740;50.672;18.690;2023-01-10T14:41:21;99067.40;;;6.10
71081;BMP180;58740;50.672;18.690;2023-01-10T14:46:53;99074.00;;;6.10
71081;BMP180;58740;50.672;18.690;2023-01-10T14:49:28;99075.00;;;6.10
71081;BMP180;58740;50.672;18.690;2023-01-10T14:52:18;99079.40;;;6.10
71081;BMP180;58740;50.672;18.690;2023-01-10T14:55:01;99076.20;;;6.10
71081;BMP180;58740;50.672;18.690;2023-01-10T14:57:30;99083.00;;;6.10
71081;BMP180;58740;50.672;18.690;2023-01-10T15:00:12;99080.20;;;6.10
71081;BMP180;58740;50.672;18.690;2023-01-10T15:02:46;99091.40;;;6.14
71081;BMP180;58740;50.672;18.690;2023-01-10T15:05:24;99098.40;;;6.20
71081;BMP180;58740;50.672;18.690;2023-01-10T15:07:54;99110.00;;;6.12
71081;BMP180;58740;50.672;18.690;2023-01-10T15:10:31;99111.80;;;6.10
71081;BMP180;58740;50.672;18.690;2023-01-10T15:13:02;99108.60;;;6.10
71081;BMP180;58740;50.672;18.690;2023-01-10T15:15:37;99114.60;;;6.10
71081;BMP180;58740;50.672;18.690;2023-01-10T15:18:28;99112.20;;;6.10
71081;BMP180;58740;50.672;18.690;2023-01-10T15:21:01;99124.00;;;6.10
71081;BMP180;58740;50.672;18.690;2023-01-10T15:23:41;99124.60;;;6.10
71081;BMP180;58740;50.672;18.690;2023-01-10T15:26:17;99138.40;;;6.10
71081;BMP180;58740;50.672;18.690;2023-01-10T15:29:11;99140.20;;;6.10
71081;BMP180;58740;50.672;18.690;2023-01-10T15:31:41;99140.40;;;6.10
71081;BMP180;58740;50.672;18.690;2023-01-10T15:34:19;99148.80;;;6.20
71081;BMP180;58740;50.672;18.690;2023-01-10T15:36:56;99147.00;;;6.20
71081;BMP180;58740;50.672;18.690;2023-01-10T15:39:38;99146.20;;;6.20
71081;BMP180;58740;50.672;18.690;2023-01-10T15:42:10;99147.80;;;6.20
71081;BMP180;58740;50.672;18.690;2023-01-10T15:44:42;99151.60;;;6.18
71081;BMP180;58740;50.672;18.690;2023-01-10T15:47:50;99149.60;;;6.10
71081;BMP180;58740;50.672;18.690;2023-01-10T15:50:25;99155.80;;;6.10
71081;BMP180;58740;50.672;18.690;2023-01-10T15:53:03;99157.00;;;6.10
71081;BMP180;58740;50.672;18.690;2023-01-10T15:55:44;99162.00;;;6.10